Time;durP1;ratioP1;P1;durP2;ratioP2;P2;SDS_P1;SDS_P2;PMS_P1;PMS_P2;Temp;Humidity;BMP_temperature;BMP_pressure;BME280_temperature;BME280_humidity;BME280_pressure;Samples;Min_cycle;Max_cycle;Signal;HPM_P1;HPM_P2
2023/02/10 00:01:38;;;;;;;;;;;;;;;17.92;55.25;102497.04;2325350;76;52605;-73
2023/02/10 00:04:39;;;;;;;;;;;;;;;17.95;55.37;102491.41;2308555;76;49511;-72
2023/02/10 00:07:41;;;;;;;;;;;;;;;18.01;55.35;102494.06;2302351;76;51336;-72
2023/02/10 00:10:43;;;;;;;;;;;;;;;18.08;55.30;102490.34;2295659;77;50176;-72
2023/02/10 00:13:44;;;;;;;;;;;;;;;18.11;55.19;102488.26;2301001;77;50269;-72
2023/02/10 00:16:47;;;;;;;;;;;;;;;18.12;55.11;102487.77;2295768;76;49716;-72
2023/02/10 00:19:48;;;;;;;;;;;;;;;18.11;55.06;102489.60;2299468;77;51433;-72
2023/02/10 00:22:50;;;;;;;;;;;;;;;18.08;55.13;102491.18;2297589;77;50570;-72
2023/02/10 00:25:53;;;;;;;;;;;;;;;18.04;55.10;102488.44;2292308;76;51445;-72
2023/02/10 00:28:54;;;;;;;;;;;;;;;18.04;55.05;102495.97;2292377;76;49565;-72
2023/02/10 00:31:56;;;;;;;;;;;;;;;18.00;55.04;102494.53;2292513;76;50763;-72
2023/02/10 00:34:58;;;;;;;;;;;;;;;17.96;55.07;102502.50;2315394;75;51421;-71
2023/02/10 00:37:59;;;;;;;;;;;;;;;17.91;55.16;102494.02;2341422;76;51587;-73
2023/02/10 00:41:04;;;;;;;;;;;;;;;17.90;55.35;102490.95;2334293;75;50980;-71
2023/02/10 00:44:06;;;;;;;;;;;;;;;17.95;55.36;102490.56;2325670;76;51625;-72
2023/02/10 00:47:08;;;;;;;;;;;;;;;17.98;55.33;102489.83;2345789;75;51359;-72
2023/02/10 00:50:09;;;;;;;;;;;;;;;18.04;55.25;102496.47;2325872;76;51356;-72
2023/02/10 00:53:11;;;;;;;;;;;;;;;18.06;55.29;102495.35;2334461;75;50973;-72
2023/02/10 00:56:12;;;;;;;;;;;;;;;18.12;55.31;102499.81;2345778;76;50428;-73
2023/02/10 00:59:15;;;;;;;;;;;;;;;18.16;55.22;102506.12;2345616;76;51402;-73
2023/02/10 01:02:17;;;;;;;;;;;;;;;18.18;55.16;102510.82;2325989;76;50761;-73
2023/02/10 01:05:18;;;;;;;;;;;;;;;18.18;55.16;102502.78;2293269;76;51156;-72
2023/02/10 01:08:20;;;;;;;;;;;;;;;18.17;55.21;102508.30;2304791;76;50670;-74
2023/02/10 01:11:23;;;;;;;;;;;;;;;18.13;55.24;102514.89;2310855;76;51297;-73
2023/02/10 01:14:25;;;;;;;;;;;;;;;18.10;55.31;102521.37;2310673;76;51338;-72
2023/02/10 01:17:26;;;;;;;;;;;;;;;18.06;55.35;102522.14;2284607;77;51458;-73
2023/02/10 01:20:28;;;;;;;;;;;;;;;18.02;55.42;102523.88;2304959;76;51439;-73
2023/02/10 01:23:29;;;;;;;;;;;;;;;17.99;55.36;102521.47;2299683;77;50660;-73
2023/02/10 01:26:31;;;;;;;;;;;;;;;17.95;55.35;102521.36;2299768;76;50885;-74
2023/02/10 01:29:33;;;;;;;;;;;;;;;17.92;55.58;102523.82;2274297;77;52664;-72
2023/02/10 01:32:34;;;;;;;;;;;;;;;17.96;55.63;102523.92;2299675;77;51507;-72
2023/02/10 01:35:37;;;;;;;;;;;;;;;18.02;55.60;102518.02;2305874;76;51446;-72
2023/02/10 01:38:39;;;;;;;;;;;;;;;18.07;55.61;102521.64;2336877;75;50155;-73
2023/02/10 01:41:40;;;;;;;;;;;;;;;18.06;55.64;102518.13;2340886;75;49600;-71
2023/02/10 01:44:43;;;;;;;;;;;;;;;18.08;55.49;102515.30;2314200;76;52668;-72
2023/02/10 01:47:45;;;;;;;;;;;;;;;18.05;55.46;102517.75;2336929;75;50731;-72
2023/02/10 01:50:57;;;;;;;;;;;;;;;18.02;55.59;102518.02;2336817;75;50271;-72
2023/02/10 01:53:59;;;;;;;;;;;;;;;18.01;55.60;102517.67;2313911;76;50949;-74
2023/02/10 01:57:01;;;;;;;;;;;;;;;17.97;55.63;102504.67;2336805;75;51539;-73
2023/02/10 02:00:03;;;;;;;;;;;;;;;17.91;55.72;102503.88;2336892;76;50295;-72
2023/02/10 02:03:05;;;;;;;;;;;;;;;17.90;55.86;102492.30;2336685;75;51529;-73
2023/02/10 02:06:07;;;;;;;;;;;;;;;17.89;55.87;102493.30;2304353;76;49541;-72
2023/02/10 02:09:09;;;;;;;;;;;;;;;17.92;56.22;102493.02;2315546;75;51401;-71
2023/02/10 02:12:31;;;;;;;;;;;;;;;17.95;56.19;102499.94;2315443;77;50715;-72
2023/02/10 02:15:40;;;;;;;;;;;;;;;17.97;56.06;102510.88;2315617;75;50424;-72
2023/02/10 02:18:49;;;;;;;;;;;;;;;17.99;55.95;102504.91;2284963;76;49558;-72
2023/02/10 02:22:11;;;;;;;;;;;;;;;18.04;56.08;102520.08;2302432;76;51438;-71
2023/02/10 02:25:17;;;;;;;;;;;;;;;18.06;55.92;102518.13;2301086;77;50413;-73
2023/02/10 02:28:27;;;;;;;;;;;;;;;18.05;55.86;102519.09;2301009;76;50217;-72
2023/02/10 02:31:47;;;;;;;;;;;;;;;18.04;55.83;102532.14;2279201;77;51028;-72
2023/02/10 02:35:05;;;;;;;;;;;;;;;18.01;55.86;102523.03;2304506;76;50234;-73
2023/02/10 02:38:07;;;;;;;;;;;;;;;17.98;55.79;102528.66;2312469;75;51462;-71
2023/02/10 02:41:09;;;;;;;;;;;;;;;17.93;55.99;102541.61;2320216;76;50610;-74
2023/02/10 02:44:10;;;;;;;;;;;;;;;17.90;55.93;102541.84;2295735;76;53435;-74
2023/02/10 02:47:19;;;;;;;;;;;;;;;17.83;55.95;102536.19;2320170;75;51479;-74
2023/02/10 02:50:25;;;;;;;;;;;;;;;17.78;56.12;102527.67;2320253;76;51521;-74
2023/02/10 02:53:46;;;;;;;;;;;;;;;17.79;56.15;102527.17;2320064;76;51417;-73
2023/02/10 02:56:48;;;;;;;;;;;;;;;17.86;56.07;102533.73;2321874;75;51665;-73
2023/02/10 02:59:51;;;;;;;;;;;;;;;17.95;55.86;102525.38;2320303;76;50282;-74
2023/02/10 03:02:52;;;;;;;;;;;;;;;17.99;55.72;102523.65;2320107;76;51514;-74
2023/02/10 03:05:54;;;;;;;;;;;;;;;18.04;55.61;102525.44;2314693;76;51474;-74
2023/02/10 03:08:55;;;;;;;;;;;;;;;18.08;55.52;102527.34;2324352;76;52283;-73
2023/02/10 03:11:57;;;;;;;;;;;;;;;18.08;55.44;102531.37;2323299;76;52045;-73
2023/02/10 03:14:59;;;;;;;;;;;;;;;18.06;55.39;102531.52;2325199;76;50084;-74
2023/02/10 03:18:00;;;;;;;;;;;;;;;18.05;55.35;102535.16;2322233;75;50281;-73
2023/02/10 03:21:02;;;;;;;;;;;;;;;18.03;55.35;102537.15;2284402;76;51118;-75
2023/02/10 03:24:04;;;;;;;;;;;;;;;17.99;55.41;102541.56;2310628;76;50182;-75
2023/02/10 03:27:05;;;;;;;;;;;;;;;17.96;55.40;102545.84;2325589;76;50547;-74
2023/02/10 03:30:07;;;;;;;;;;;;;;;17.94;55.38;102545.97;2321834;76;50345;-74
2023/02/10 03:33:09;;;;;;;;;;;;;;;17.84;55.56;102545.91;2283816;76;52389;-73
2023/02/10 03:36:10;;;;;;;;;;;;;;;17.81;55.91;102539.98;2297812;76;51350;-73
2023/02/10 03:39:12;;;;;;;;;;;;;;;17.84;55.95;102549.08;2300955;76;50363;-73
2023/02/10 03:42:13;;;;;;;;;;;;;;;17.90;55.84;102545.86;2304856;76;50306;-72
2023/02/10 03:45:15;;;;;;;;;;;;;;;17.97;55.76;102552.39;2304582;76;51611;-73
2023/02/10 03:48:17;;;;;;;;;;;;;;;18.03;55.55;102555.02;2301165;76;50351;-73
2023/02/10 03:51:18;;;;;;;;;;;;;;;18.08;55.38;102551.95;2301114;76;50636;-72
2023/02/10 03:54:20;;;;;;;;;;;;;;;18.11;55.25;102557.04;2301025;76;50320;-73
2023/02/10 03:57:21;;;;;;;;;;;;;;;18.10;55.17;102554.02;2301243;76;50224;-73
2023/02/10 04:00:23;;;;;;;;;;;;;;;18.05;55.19;102564.63;2305641;76;50554;-72
2023/02/10 04:03:24;;;;;;;;;;;;;;;18.03;55.16;102570.63;2301175;76;50976;-73
2023/02/10 04:06:26;;;;;;;;;;;;;;;18.00;55.15;102572.20;2304021;75;50631;-74
2023/02/10 04:09:28;;;;;;;;;;;;;;;17.97;55.19;102567.12;2320440;76;51293;-73
2023/02/10 04:12:29;;;;;;;;;;;;;;;17.93;55.24;102563.03;2321900;76;50332;-72
2023/02/10 04:15:31;;;;;;;;;;;;;;;17.87;55.32;102562.20;2322037;76;50681;-72
2023/02/10 04:18:38;;;;;;;;;;;;;;;17.85;55.37;102549.42;2320017;75;50350;-71
2023/02/10 04:21:36;;;;;;;;;;;;;;;17.85;55.42;102537.38;2315621;76;22272;-72
2023/02/10 04:24:37;;;;;;;;;;;;;;;17.89;55.38;102537.48;2308315;76;51431;-72
2023/02/10 04:27:39;;;;;;;;;;;;;;;17.95;55.26;102536.09;2314014;77;51334;-72
2023/02/10 04:30:40;;;;;;;;;;;;;;;18.00;55.16;102533.38;2308621;76;50268;-74
2023/02/10 04:33:42;;;;;;;;;;;;;;;18.05;55.01;102532.98;2314079;76;50181;-73
2023/02/10 04:36:44;;;;;;;;;;;;;;;18.07;54.95;102548.43;2311128;77;49858;-71
2023/02/10 04:39:45;;;;;;;;;;;;;;;18.06;54.90;102552.95;2308462;76;50729;-71
2023/02/10 04:42:47;;;;;;;;;;;;;;;18.04;54.91;102554.91;2313942;77;51431;-72
2023/02/10 04:45:48;;;;;;;;;;;;;;;18.02;54.92;102548.83;2282585;77;51697;-72
2023/02/10 04:48:50;;;;;;;;;;;;;;;17.99;54.92;102555.80;2308717;76;51288;-72
2023/02/10 04:51:51;;;;;;;;;;;;;;;17.95;54.99;102548.99;2308718;76;51410;-73
2023/02/10 04:54:53;;;;;;;;;;;;;;;17.93;55.00;102564.84;2313965;77;50290;-73
2023/02/10 04:57:55;;;;;;;;;;;;;;;17.88;55.05;102569.27;2282849;77;50935;-74
2023/02/10 05:00:56;;;;;;;;;;;;;;;17.84;55.21;102566.48;2314008;77;50221;-72
2023/02/10 05:03:58;;;;;;;;;;;;;;;17.83;55.29;102562.13;2314089;75;51387;-73
2023/02/10 05:06:59;;;;;;;;;;;;;;;17.87;55.30;102566.72;2315848;77;51407;-75
2023/02/10 05:10:01;;;;;;;;;;;;;;;17.91;55.25;102569.00;2310161;75;49879;-74
2023/02/10 05:13:03;;;;;;;;;;;;;;;17.97;55.10;102576.50;2309915;76;51440;-72
2023/02/10 05:16:04;;;;;;;;;;;;;;;18.03;54.98;102575.12;2310418;76;49970;-72
2023/02/10 05:19:08;;;;;;;;;;;;;;;18.10;54.82;102578.13;2310244;76;51382;-73
2023/02/10 05:22:09;;;;;;;;;;;;;;;18.10;54.78;102582.98;2321132;76;22362;-72
2023/02/10 05:25:11;;;;;;;;;;;;;;;18.11;54.82;102578.47;2331662;75;50607;-73
2023/02/10 05:28:12;;;;;;;;;;;;;;;18.06;54.99;102574.38;2335296;75;51547;-73
2023/02/10 05:31:14;;;;;;;;;;;;;;;18.04;54.97;102574.16;2335247;75;51342;-73
2023/02/10 05:34:15;;;;;;;;;;;;;;;18.02;54.96;102574.27;2339439;75;51464;-72
2023/02/10 05:37:17;;;;;;;;;;;;;;;17.99;54.95;102574.55;2329005;75;51359;-73
2023/02/10 05:40:19;;;;;;;;;;;;;;;17.96;55.00;102573.97;2316265;75;49847;-73
2023/02/10 05:43:20;;;;;;;;;;;;;;;17.93;55.01;102580.91;2310524;75;50378;-72
2023/02/10 05:46:22;;;;;;;;;;;;;;;17.84;55.16;102584.73;2284252;75;50084;-72
2023/02/10 05:49:23;;;;;;;;;;;;;;;17.83;55.27;102579.03;2310237;76;50690;-72
2023/02/10 05:52:25;;;;;;;;;;;;;;;17.84;55.39;102584.73;2315428;76;51476;-74
2023/02/10 05:55:26;;;;;;;;;;;;;;;17.90;55.59;102588.71;2315880;75;50601;-74
2023/02/10 05:58:32;;;;;;;;;;;;;;;17.96;55.49;102582.84;2310453;75;51455;-74
2023/02/10 06:01:32;;;;;;;;;;;;;;;18.02;55.48;102581.47;2310341;76;22472;-73
2023/02/10 06:04:33;;;;;;;;;;;;;;;18.01;55.46;102577.95;2329217;75;50385;-74
2023/02/10 06:07:35;;;;;;;;;;;;;;;18.02;55.40;102578.29;2321610;75;50660;-73
2023/02/10 06:10:37;;;;;;;;;;;;;;;18.00;55.34;102582.92;2320880;76;50843;-74
2023/02/10 06:13:38;;;;;;;;;;;;;;;17.99;55.38;102591.95;2320742;76;51423;-74
2023/02/10 06:16:40;;;;;;;;;;;;;;;17.97;55.36;102596.59;2320944;75;51456;-75
2023/02/10 06:19:43;;;;;;;;;;;;;;;17.94;55.47;102590.66;2314314;77;51536;-75
2023/02/10 06:22:44;;;;;;;;;;;;;;;17.87;55.55;102579.61;2306680;76;51227;-73
2023/02/10 06:25:46;;;;;;;;;;;;;;;17.83;55.79;102590.23;2296205;77;50581;-73
2023/02/10 06:28:47;;;;;;;;;;;;;;;17.78;55.89;102602.64;2291979;76;50205;-74
2023/02/10 06:31:49;;;;;;;;;;;;;;;17.79;56.05;102611.52;2311716;76;50358;-75
2023/02/10 06:34:51;;;;;;;;;;;;;;;17.82;56.06;102609.94;2304986;76;51642;-74
2023/02/10 06:37:53;;;;;;;;;;;;;;;17.91;55.93;102615.88;2297459;76;53444;-75
2023/02/10 06:40:54;;;;;;;;;;;;;;;17.97;55.78;102615.83;2275233;77;50279;-74
2023/02/10 06:43:56;;;;;;;;;;;;;;;18.02;55.90;102622.98;2299214;75;50686;-75
2023/02/10 06:46:58;;;;;;;;;;;;;;;18.03;55.90;102614.83;2329408;76;51658;-74
2023/02/10 06:50:00;;;;;;;;;;;;;;;18.04;56.03;102615.17;2360744;74;50060;-74
2023/02/10 06:53:02;;;;;;;;;;;;;;;18.03;56.04;102615.30;2320479;74;50305;-75
2023/02/10 06:56:06;;;;;;;;;;;;;;;18.01;56.12;102621.30;2295652;77;22368;-74
2023/02/10 06:59:07;;;;;;;;;;;;;;;18.02;55.91;102625.66;2274366;77;51731;-74
2023/02/10 07:02:11;;;;;;;;;;;;;;;17.99;55.86;102629.95;2303945;76;50452;-74
2023/02/10 07:05:12;;;;;;;;;;;;;;;17.95;55.83;102637.38;2321849;76;51433;-75
2023/02/10 07:08:14;;;;;;;;;;;;;;;17.94;55.77;102646.90;2315951;75;51522;-74
2023/02/10 07:11:15;;;;;;;;;;;;;;;17.86;55.84;102646.21;2317299;75;51373;-74
2023/02/10 07:14:17;;;;;;;;;;;;;;;17.81;55.96;102645.75;2328783;76;51488;-74
2023/02/10 07:17:19;;;;;;;;;;;;;;;17.82;55.94;102634.89;2334674;75;50611;-73
2023/02/10 07:20:21;;;;;;;;;;;;;;;17.90;55.80;102642.27;2334697;76;51484;-73
2023/02/10 07:23:22;;;;;;;;;;;;;;;17.96;55.59;102646.28;2312280;76;51256;-73
2023/02/10 07:26:24;;;;;;;;;;;;;;;18.02;55.41;102646.59;2339239;75;50075;-73
2023/02/10 07:29:26;;;;;;;;;;;;;;;18.01;55.36;102659.64;2334396;76;50396;-73
2023/02/10 07:32:28;;;;;;;;;;;;;;;18.04;55.21;102654.02;2333977;76;50340;-73
2023/02/10 07:35:31;;;;;;;;;;;;;;;18.01;55.18;102669.52;2303654;76;51588;-73
2023/02/10 07:38:32;;;;;;;;;;;;;;;17.96;55.12;102665.88;2334119;76;50621;-73
2023/02/10 07:41:34;;;;;;;;;;;;;;;17.97;55.02;102662.20;2334364;76;51305;-73
2023/02/10 07:44:36;;;;;;;;;;;;;;;17.95;54.99;102658.80;2334050;76;50604;-75
2023/02/10 07:47:37;;;;;;;;;;;;;;;17.97;54.87;102661.36;2311794;76;52320;-73
2023/02/10 07:50:39;;;;;;;;;;;;;;;17.95;54.84;102660.64;2334199;76;51503;-74
2023/02/10 07:53:42;;;;;;;;;;;;;;;17.93;54.86;102660.79;2338275;75;50687;-73
2023/02/10 07:56:45;;;;;;;;;;;;;;;17.94;54.86;102669.17;2334029;76;51489;-74
2023/02/10 07:59:47;;;;;;;;;;;;;;;17.97;54.74;102675.60;2296642;76;50685;-74
2023/02/10 08:02:48;;;;;;;;;;;;;;;18.05;54.53;102669.09;2277612;76;50565;-74
2023/02/10 08:05:50;;;;;;;;;;;;;;;18.08;54.50;102676.03;2308959;75;51355;-73
2023/02/10 08:08:51;;;;;;;;;;;;;;;18.09;54.47;102682.26;2308755;76;50935;-73
2023/02/10 08:11:53;;;;;;;;;;;;;;;18.10;54.42;102683.45;2323255;75;50641;-74
2023/02/10 08:14:54;;;;;;;;;;;;;;;18.09;54.35;102684.44;2301594;76;51445;-73
2023/02/10 08:17:56;;;;;;;;;;;;;;;18.04;54.43;102688.00;2307360;76;51520;-72
2023/02/10 08:21:01;;;;;;;;;;;;;;;18.00;54.48;102694.58;2330804;76;51397;-73
2023/02/10 08:24:03;;;;;;;;;;;;;;;17.98;54.53;102694.73;2338114;75;49962;-75
2023/02/10 08:27:05;;;;;;;;;;;;;;;17.95;54.53;102692.28;2312054;76;51516;-74
2023/02/10 08:30:07;;;;;;;;;;;;;;;17.96;54.51;102702.04;2338665;75;50798;-73
2023/02/10 08:33:08;;;;;;;;;;;;;;;17.98;54.45;102702.77;2334444;76;51565;-74
2023/02/10 08:36:11;;;;;;;;;;;;;;;17.91;54.60;102709.61;2323147;75;50537;-73
2023/02/10 08:39:14;;;;;;;;;;;;;;;17.88;54.69;102706.31;2322390;76;51180;-73
2023/02/10 08:42:15;;;;;;;;;;;;;;;17.92;54.64;102716.66;2333736;76;51475;-73
2023/02/10 08:45:17;;;;;;;;;;;;;;;17.97;54.57;102711.77;2338304;75;51383;-73
2023/02/10 08:48:18;;;;;;;;;;;;;;;18.04;54.41;102712.95;2334025;76;51394;-73
2023/02/10 08:51:20;;;;;;;;;;;;;;;18.11;54.21;102715.10;2311755;76;52627;-73
2023/02/10 08:54:22;;;;;;;;;;;;;;;18.11;54.21;102719.13;2338761;75;51384;-73
2023/02/10 08:57:23;;;;;;;;;;;;;;;18.08;54.18;102712.19;2334656;76;50224;-73
2023/02/10 09:00:26;;;;;;;;;;;;;;;18.04;54.24;102712.95;2334745;76;51090;-74
2023/02/10 09:03:28;;;;;;;;;;;;;;;18.03;54.23;102708.59;2338745;75;50605;-74
2023/02/10 09:06:40;;;;;;;;;;;;;;;17.98;54.31;102708.59;2320150;76;50079;-74
2023/02/10 09:09:41;;;;;;;;;;;;;;;17.95;54.33;102723.09;2332865;76;22447;-73
2023/02/10 09:12:42;;;;;;;;;;;;;;;17.93;54.32;102711.67;2312206;76;51509;-73
2023/02/10 09:15:44;;;;;;;;;;;;;;;17.95;54.22;102708.36;2286548;76;49466;-73
2023/02/10 09:18:46;;;;;;;;;;;;;;;17.88;54.33;102710.34;2334351;76;50595;-74
2023/02/10 09:21:47;;;;;;;;;;;;;;;17.88;54.38;102707.20;2334357;76;51281;-73
2023/02/10 09:24:51;;;;;;;;;;;;;;;17.87;54.44;102721.55;2343820;75;51441;-73
2023/02/10 09:27:54;;;;;;;;;;;;;;;17.93;54.29;102726.41;2326897;76;22310;-74
2023/02/10 09:30:56;;;;;;;;;;;;;;;17.93;54.27;102730.42;2326684;76;50803;-74
2023/02/10 09:33:57;;;;;;;;;;;;;;;17.98;54.20;102726.88;2346119;76;50711;-74
2023/02/10 09:37:01;;;;;;;;;;;;;;;18.04;54.03;102731.70;2308672;76;51366;-74
2023/02/10 09:40:02;;;;;;;;;;;;;;;18.11;53.85;102728.50;2302448;77;22809;-74
2023/02/10 09:43:08;;;;;;;;;;;;;;;18.11;53.78;102732.05;2296477;77;51959;-74
2023/02/10 09:46:18;;;;;;;;;;;;;;;18.08;53.80;102731.44;2301936;77;50112;-74
2023/02/10 09:49:24;;;;;;;;;;;;;;;18.04;53.86;102731.70;2301956;76;50235;-73
2023/02/10 09:52:43;;;;;;;;;;;;;;;18.03;53.81;102730.02;2270655;77;51697;-73
2023/02/10 09:55:46;;;;;;;;;;;;;;;17.99;53.87;102739.28;2301883;77;50800;-74
2023/02/10 09:58:51;;;;;;;;;;;;;;;18.00;53.82;102737.44;2302129;76;50643;-73
2023/02/10 10:01:58;;;;;;;;;;;;;;;17.94;53.90;102740.15;2302012;77;50707;-73
2023/02/10 10:05:00;;;;;;;;;;;;;;;17.90;53.98;102741.86;2292349;75;51192;-74
2023/02/10 10:08:02;;;;;;;;;;;;;;;17.86;54.10;102764.05;2346423;75;51586;-73
2023/02/10 10:11:05;;;;;;;;;;;;;;;17.90;54.04;102756.59;2346216;76;50654;-73
2023/02/10 10:14:08;;;;;;;;;;;;;;;17.95;53.96;102761.92;2346064;76;50645;-74
2023/02/10 10:17:28;;;;;;;;;;;;;;;17.98;53.87;102753.66;2324987;76;51309;-74
2023/02/10 10:20:37;;;;;;;;;;;;;;;18.03;53.76;102761.28;2345993;76;50257;-74
2023/02/10 10:23:40;;;;;;;;;;;;;;;18.09;53.60;102757.27;2337803;75;51570;-73
2023/02/10 10:26:44;;;;;;;;;;;;;;;18.11;53.48;102759.31;2322626;76;51380;-74
2023/02/10 10:29:52;;;;;;;;;;;;;;;18.11;53.42;102757.97;2310656;76;50068;-73
2023/02/10 10:32:55;;;;;;;;;;;;;;;18.08;53.50;102761.75;2310710;76;50617;-73
2023/02/10 10:36:01;;;;;;;;;;;;;;;18.04;53.55;102760.33;2315540;76;50407;-73
2023/02/10 10:39:01;;;;;;;;;;;;;;;17.98;53.64;102755.00;2321136;76;22334;-73
2023/02/10 10:42:05;;;;;;;;;;;;;;;18.00;53.52;102757.53;2296240;76;51702;-73
2023/02/10 10:45:07;;;;;;;;;;;;;;;17.95;53.64;102771.30;2320703;76;50643;-73
2023/02/10 10:48:09;;;;;;;;;;;;;;;17.98;53.52;102775.09;2320759;76;50296;-74
2023/02/10 10:51:11;;;;;;;;;;;;;;;17.93;53.61;102769.27;2320839;76;51519;-73
2023/02/10 10:54:16;;;;;;;;;;;;;;;17.93;53.66;102763.03;2296013;76;51597;-73
2023/02/10 10:57:18;;;;;;;;;;;;;;;17.98;53.59;102758.14;2320832;76;50644;-73
2023/02/10 11:00:21;;;;;;;;;;;;;;;18.01;53.51;102753.40;2320871;76;51397;-74
2023/02/10 11:03:23;;;;;;;;;;;;;;;18.04;53.45;102745.59;2320643;76;50307;-74
2023/02/10 11:06:25;;;;;;;;;;;;;;;18.11;53.28;102743.23;2294332;76;51127;-74
2023/02/10 11:09:32;;;;;;;;;;;;;;;18.12;53.28;102743.61;2274329;77;50714;-74
2023/02/10 11:12:35;;;;;;;;;;;;;;;18.16;53.16;102751.27;2272273;77;50352;-73
2023/02/10 11:15:40;;;;;;;;;;;;;;;18.19;53.04;102742.13;2272305;77;51480;-74
2023/02/10 11:18:52;;;;;;;;;;;;;;;18.16;53.04;102738.34;2249331;78;52421;-73
2023/02/10 11:21:53;;;;;;;;;;;;;;;18.14;53.06;102733.62;2272538;77;51507;-73
2023/02/10 11:24:57;;;;;;;;;;;;;;;18.11;53.15;102733.86;2273116;77;51528;-73
2023/02/10 11:28:01;;;;;;;;;;;;;;;18.06;53.21;102732.43;2272595;77;50221;-74
2023/02/10 11:31:04;;;;;;;;;;;;;;;18.06;53.16;102726.23;2249495;78;49505;-74
2023/02/10 11:34:20;;;;;;;;;;;;;;;18.06;53.17;102722.21;2282599;76;51500;-74
2023/02/10 11:37:26;;;;;;;;;;;;;;;17.96;53.35;102726.64;2322067;76;50226;-74
2023/02/10 11:40:29;;;;;;;;;;;;;;;17.96;53.39;102723.47;2322813;76;50743;-73
2023/02/10 11:43:32;;;;;;;;;;;;;;;17.99;53.37;102721.86;2325339;76;50084;-74
2023/02/10 11:46:33;;;;;;;;;;;;;;;18.03;53.28;102714.41;2321446;76;50635;-74
2023/02/10 11:49:36;;;;;;;;;;;;;;;18.06;53.20;102713.68;2322240;75;51366;-74
2023/02/10 11:52:38;;;;;;;;;;;;;;;18.17;52.97;102717.28;2321632;76;50061;-74
2023/02/10 11:55:44;;;;;;;;;;;;;;;18.25;52.79;102707.60;2322129;76;50344;-73
2023/02/10 11:58:59;;;;;;;;;;;;;;;18.24;52.81;102707.75;2321963;76;50320;-73
2023/02/10 12:02:02;;;;;;;;;;;;;;;18.22;52.81;102717.25;2321942;76;50317;-73
2023/02/10 12:05:08;;;;;;;;;;;;;;;18.18;52.90;102716.29;2317782;76;50801;-74
2023/02/10 12:08:13;;;;;;;;;;;;;;;18.15;52.93;102713.88;2281113;76;52577;-74
2023/02/10 12:11:22;;;;;;;;;;;;;;;18.14;52.97;102717.05;2282541;77;49979;-75
2023/02/10 12:14:42;;;;;;;;;;;;;;;18.06;53.14;102706.98;2288494;76;51452;-75
2023/02/10 12:17:46;;;;;;;;;;;;;;;17.99;53.58;102712.48;2300031;76;22241;-75
2023/02/10 12:20:52;;;;;;;;;;;;;;;17.86;53.78;102701.11;2286424;76;51217;-75
2023/02/10 12:23:56;;;;;;;;;;;;;;;17.82;53.96;102699.66;2285692;76;51622;-75
2023/02/10 12:27:01;;;;;;;;;;;;;;;17.83;54.08;102697.35;2301922;76;50631;-75
2023/02/10 12:30:04;;;;;;;;;;;;;;;17.86;54.07;102702.94;2301644;76;22510;-75
2023/02/10 12:33:11;;;;;;;;;;;;;;;17.91;53.96;102696.22;2291624;76;51557;-74
2023/02/10 12:36:32;;;;;;;;;;;;;;;17.96;53.90;102691.33;2302230;75;50639;-75
2023/02/10 12:39:42;;;;;;;;;;;;;;;18.00;53.86;102692.75;2284760;75;50700;-75
2023/02/10 12:42:45;;;;;;;;;;;;;;;18.05;53.82;102693.21;2283870;77;50635;-74
2023/02/10 12:45:54;;;;;;;;;;;;;;;18.07;53.85;102695.77;2304761;75;50755;-75
2023/02/10 12:49:00;;;;;;;;;;;;;;;18.08;53.85;102690.77;2293086;75;51487;-75
2023/02/10 12:52:21;;;;;;;;;;;;;;;18.06;53.92;102686.05;2299366;76;50298;-75
2023/02/10 12:55:24;;;;;;;;;;;;;;;18.04;53.94;102677.28;2285431;76;50115;-75
2023/02/10 12:58:30;;;;;;;;;;;;;;;18.00;54.01;102684.71;2290232;75;50734;-75
2023/02/10 13:01:38;;;;;;;;;;;;;;;17.96;54.07;102673.91;2320198;76;50369;-75
2023/02/10 13:04:42;;;;;;;;;;;;;;;17.93;54.12;102680.87;2312044;76;21982;-76
2023/02/10 13:07:48;;;;;;;;;;;;;;;17.90;54.13;102685.13;2311966;76;50434;-75
2023/02/10 13:10:50;;;;;;;;;;;;;;;17.89;54.27;102691.97;2299970;76;51683;-74
2023/02/10 13:13:53;;;;;;;;;;;;;;;17.89;54.37;102687.45;2312918;76;51458;-75
2023/02/10 13:16:56;;;;;;;;;;;;;;;17.92;54.33;102687.19;2330123;75;50569;-75
2023/02/10 13:20:05;;;;;;;;;;;;;;;17.98;54.26;102677.32;2300503;76;50349;-73
2023/02/10 13:23:17;;;;;;;;;;;;;;;18.02;54.17;102674.72;2306934;76;51240;-73
2023/02/10 13:26:39;;;;;;;;;;;;;;;18.08;54.08;102667.14;2300071;76;50271;-75
2023/02/10 13:29:45;;;;;;;;;;;;;;;18.11;54.08;102662.40;2274866;78;51454;-75
2023/02/10 13:32:51;;;;;;;;;;;;;;;18.16;53.99;102667.34;2274630;77;51484;-75
2023/02/10 13:35:53;;;;;;;;;;;;;;;18.16;53.98;102667.34;2251584;76;51131;-75
2023/02/10 13:39:02;;;;;;;;;;;;;;;18.14;54.01;102674.19;2305663;75;51492;-76
2023/02/10 13:42:05;;;;;;;;;;;;;;;18.10;54.11;102670.55;2297898;76;50784;-76
2023/02/10 13:45:09;;;;;;;;;;;;;;;18.06;54.15;102664.13;2306672;76;50743;-75
2023/02/10 13:48:29;;;;;;;;;;;;;;;18.03;54.21;102672.42;2267727;77;51616;-75
2023/02/10 13:51:31;;;;;;;;;;;;;;;17.99;54.28;102665.61;2277836;77;22420;-75
2023/02/10 13:54:33;;;;;;;;;;;;;;;17.97;54.37;102664.89;2292629;76;50219;-75
2023/02/10 13:57:35;;;;;;;;;;;;;;;17.97;54.51;102678.28;2310842;76;51366;-75
2023/02/10 14:00:48;;;;;;;;;;;;;;;18.02;54.51;102673.38;2336408;76;50092;-77
2023/02/10 14:03:51;;;;;;;;;;;;;;;18.10;54.47;102673.23;2348904;74;51566;-75
2023/02/10 14:06:53;;;;;;;;;;;;;;;18.19;54.12;102673.80;2323097;75;51389;-75
2023/02/10 14:10:01;;;;;;;;;;;;;;;18.25;53.97;102673.27;2322577;75;51566;-74
2023/02/10 14:13:08;;;;;;;;;;;;;;;18.26;53.82;102669.12;2336861;75;51529;-74
2023/02/10 14:16:17;;;;;;;;;;;;;;;18.26;53.70;102659.74;2290464;76;50452;-74
2023/02/10 14:19:20;;;;;;;;;;;;;;;18.23;53.67;102659.98;2272872;77;51590;-75
2023/02/10 14:22:24;;;;;;;;;;;;;;;18.17;53.71;102657.84;2273628;77;50774;-75
2023/02/10 14:25:27;;;;;;;;;;;;;;;18.12;53.78;102648.50;2258934;77;51656;-75
2023/02/10 14:28:30;;;;;;;;;;;;;;;18.06;53.83;102641.34;2308551;75;50164;-75
2023/02/10 14:31:33;;;;;;;;;;;;;;;18.03;53.87;102638.94;2307595;76;50700;-75
2023/02/10 14:34:35;;;;;;;;;;;;;;;18.04;53.74;102636.61;2307202;77;51408;-75
2023/02/10 14:37:37;;;;;;;;;;;;;;;18.01;53.80;102625.31;2276232;76;51646;-74
2023/02/10 14:40:38;;;;;;;;;;;;;;;18.00;53.89;102620.42;2301855;76;51420;-74
2023/02/10 14:43:40;;;;;;;;;;;;;;;18.04;53.84;102621.88;2311662;76;51483;-74
2023/02/10 14:46:41;;;;;;;;;;;;;;;18.10;53.73;102620.49;2322146;76;51453;-76
2023/02/10 14:49:43;;;;;;;;;;;;;;;18.16;53.58;102626.69;2324086;76;51803;-75
2023/02/10 14:52:48;;;;;;;;;;;;;;;18.20;53.45;102627.25;2324099;76;52274;-74
2023/02/10 14:55:51;;;;;;;;;;;;;;;18.26;53.36;102638.77;2329825;76;50209;-74
2023/02/10 14:58:52;;;;;;;;;;;;;;;18.28;53.26;102632.80;2329746;76;50287;-74
2023/02/10 15:01:55;;;;;;;;;;;;;;;18.29;53.16;102627.81;2297749;76;49682;-74
2023/02/10 15:04:58;;;;;;;;;;;;;;;18.24;53.19;102630.04;2324077;76;50557;-74
2023/02/10 15:07:59;;;;;;;;;;;;;;;18.18;53.26;102625.19;2329322;76;50647;-76
2023/02/10 15:11:01;;;;;;;;;;;;;;;18.14;53.33;102619.76;2329766;76;51332;-74
2023/02/10 15:14:02;;;;;;;;;;;;;;;18.11;53.34;102626.23;2325015;76;51043;-75
2023/02/10 15:17:05;;;;;;;;;;;;;;;18.06;53.42;102621.26;2331717;76;50142;-75
2023/02/10 15:20:17;;;;;;;;;;;;;;;18.03;53.44;102629.56;2331700;75;50744;-74
2023/02/10 15:23:19;;;;;;;;;;;;;;;18.02;53.45;102622.98;2331942;75;51446;-74
2023/02/10 15:26:22;;;;;;;;;;;;;;;18.02;53.50;102630.52;2303592;76;51488;-76
2023/02/10 15:29:24;;;;;;;;;;;;;;;18.06;53.46;102633.31;2339244;76;50825;-75
2023/02/10 15:32:25;;;;;;;;;;;;;;;18.13;53.32;102636.80;2339546;76;51157;-75
2023/02/10 15:35:27;;;;;;;;;;;;;;;18.19;53.19;102634.45;2339517;76;51302;-75
2023/02/10 15:38:28;;;;;;;;;;;;;;;18.23;53.11;102633.69;2310250;76;51222;-75
2023/02/10 15:41:31;;;;;;;;;;;;;;;18.27;52.99;102625.25;2336725;75;50175;-75